Terminal Aerodrome Forecast
Issued by NWS

Home | Current Version | Previous Version | Text Only | Print | Product List | Glossary Off
Versions: 1 2 3 4 5 6 7 8 9 10 11 12 13 14 15 16

090
FTUS43 KLSX 230520
TAFSUS
TAF
KSUS 230520Z 2306/2406 16007KT P6SM BKN250
     FM231100 22006KT P6SM VCTS BKN050CB
     FM231400 25007KT P6SM VCSH OVC015
     FM231600 35009KT P6SM BKN020
     FM231900 35011G18KT P6SM BKN035
     FM240100 33007KT P6SM FEW250=

USA.gov is the U.S. government's official web portal to all federal, state and local government web resources and services.